createdAt,value
2018-06-24T00:00:33.796Z,66.40
2018-06-24T00:03:02.143Z,66.60
2018-06-24T00:05:30.444Z,66.50
2018-06-24T00:07:58.685Z,66.40
2018-06-24T00:10:26.988Z,66.50
2018-06-24T00:12:55.305Z,66.60
2018-06-24T00:15:23.619Z,66.70
2018-06-24T00:17:51.943Z,66.70
2018-06-24T00:20:20.228Z,66.80
2018-06-24T00:22:48.488Z,66.80
2018-06-24T00:25:16.886Z,66.90
2018-06-24T00:27:45.250Z,67.00
2018-06-24T00:30:13.752Z,66.90
2018-06-24T00:32:42.070Z,67.00
2018-06-24T00:35:10.478Z,67.10
2018-06-24T00:37:38.790Z,67.20
2018-06-24T00:40:07.042Z,67.30
2018-06-24T00:42:35.371Z,67.40
2018-06-24T00:45:03.691Z,67.60
2018-06-24T00:47:31.977Z,67.60
2018-06-24T00:50:00.301Z,67.60
2018-06-24T00:52:28.608Z,67.60
2018-06-24T00:54:57.062Z,67.60
2018-06-24T00:57:25.336Z,67.50
2018-06-24T01:00:05.060Z,67.50
2018-06-24T01:02:33.258Z,67.60
2018-06-24T01:05:02.350Z,67.60
2018-06-24T01:07:30.601Z,68.20
2018-06-24T01:09:58.972Z,68.30
2018-06-24T01:14:55.677Z,68.50
2018-06-24T01:17:23.980Z,68.40
2018-06-24T01:19:54.402Z,68.40
2018-06-24T01:22:22.650Z,68.50
2018-06-24T01:24:51.008Z,68.60
2018-06-24T01:27:19.263Z,68.70
2018-06-24T01:29:47.528Z,68.80
2018-06-24T01:32:15.817Z,69.00
2018-06-24T01:34:44.070Z,69.40
2018-06-24T01:37:12.412Z,69.30
2018-06-24T01:39:40.669Z,69.10
2018-06-24T01:42:08.997Z,69.30
2018-06-24T01:44:37.494Z,69.30
2018-06-24T01:47:05.721Z,69.40
2018-06-24T01:49:34.139Z,69.60
2018-06-24T01:52:02.676Z,69.70
2018-06-24T01:54:31.008Z,69.70
2018-06-24T01:56:59.256Z,69.40
2018-06-24T01:59:27.529Z,69.40
2018-06-24T02:01:55.865Z,69.60
2018-06-24T02:04:24.153Z,69.60
2018-06-24T02:06:52.946Z,69.30
2018-06-24T02:09:21.196Z,69.90
2018-06-24T02:11:49.550Z,69.80
2018-06-24T02:14:17.868Z,69.60
2018-06-24T02:16:46.202Z,69.60
2018-06-24T02:19:15.148Z,69.70
2018-06-24T02:21:43.442Z,70.50
2018-06-24T02:24:11.773Z,71.40
2018-06-24T02:26:40.117Z,71.00
2018-06-24T02:29:08.444Z,71.40
2018-06-24T02:31:36.729Z,71.10
2018-06-24T02:34:04.986Z,70.70
2018-06-24T02:36:33.279Z,70.10
2018-06-24T02:39:01.566Z,70.20
2018-06-24T02:41:29.894Z,70.00
2018-06-24T02:43:58.228Z,70.00
2018-06-24T02:46:26.519Z,70.00
2018-06-24T02:48:54.765Z,70.00
2018-06-24T02:51:23.125Z,70.10
2018-06-24T02:53:51.867Z,69.90
2018-06-24T02:56:20.189Z,70.20
2018-06-24T02:58:49.226Z,70.40
2018-06-24T03:01:17.761Z,70.40
2018-06-24T03:03:46.092Z,70.40
2018-06-24T03:06:14.413Z,70.40
2018-06-24T03:08:42.709Z,70.30
2018-06-24T03:11:10.972Z,70.20
2018-06-24T03:16:07.405Z,70.10
2018-06-24T03:18:35.696Z,70.00
2018-06-24T03:21:03.959Z,70.00
2018-06-24T03:23:32.210Z,70.20
2018-06-24T03:26:00.521Z,70.30
2018-06-24T03:28:28.862Z,70.50
2018-06-24T03:30:57.148Z,70.70
2018-06-24T03:33:25.398Z,70.60
2018-06-24T03:35:53.698Z,70.60
2018-06-24T03:38:21.987Z,70.60
2018-06-24T03:40:50.278Z,70.80
2018-06-24T03:43:18.626Z,70.80
2018-06-24T03:45:46.999Z,71.00
2018-06-24T03:48:15.259Z,70.90
2018-06-24T03:50:43.628Z,71.10
2018-06-24T03:53:11.983Z,71.10
2018-06-24T03:55:40.254Z,71.40
2018-06-24T03:58:08.554Z,71.40
2018-06-24T04:00:36.912Z,71.40
2018-06-24T04:03:05.233Z,71.60
2018-06-24T04:05:33.588Z,71.60
2018-06-24T04:08:02.091Z,71.60
2018-06-24T04:10:30.364Z,71.50
2018-06-24T04:12:58.775Z,71.30
2018-06-24T04:15:27.095Z,71.40
2018-06-24T04:17:56.448Z,71.60
2018-06-24T04:20:24.699Z,71.50
2018-06-24T04:22:52.955Z,71.50
2018-06-24T04:25:21.235Z,71.40
2018-06-24T04:27:49.531Z,71.40
2018-06-24T04:30:17.896Z,71.50
2018-06-24T04:32:46.194Z,71.50
2018-06-24T04:35:14.460Z,71.40
2018-06-24T04:40:10.779Z,71.40
2018-06-24T04:42:39.167Z,71.40
2018-06-24T04:45:07.444Z,71.40
2018-06-24T04:47:35.727Z,71.20
2018-06-24T04:50:04.216Z,71.00
2018-06-24T04:52:32.540Z,71.00
2018-06-24T04:57:30.927Z,71.00
2018-06-24T05:02:27.237Z,71.00
2018-06-24T05:04:55.481Z,71.00
2018-06-24T05:07:23.810Z,70.60
2018-06-24T05:09:52.082Z,70.30
2018-06-24T05:12:20.367Z,70.30
2018-06-24T05:14:48.644Z,70.10
2018-06-24T05:17:16.904Z,70.10
2018-06-24T05:19:45.245Z,69.90
2018-06-24T05:22:13.558Z,69.90
2018-06-24T05:24:41.859Z,69.80
2018-06-24T05:27:10.135Z,69.70
2018-06-24T05:29:38.470Z,69.70
2018-06-24T05:37:03.124Z,69.20
2018-06-24T05:41:59.535Z,69.30
2018-06-24T05:44:27.840Z,69.00
2018-06-24T05:46:56.112Z,68.70
2018-06-24T05:49:24.388Z,68.60
2018-06-24T05:51:52.685Z,68.20
2018-06-24T05:54:21.028Z,67.80
2018-06-24T05:56:49.385Z,67.80
2018-06-24T05:59:17.721Z,67.80
2018-06-24T06:01:45.919Z,67.80
2018-06-24T06:04:14.179Z,66.80
2018-06-24T06:06:42.492Z,67.10
2018-06-24T06:09:12.168Z,66.90
2018-06-24T06:11:40.716Z,66.60
2018-06-24T06:14:10.188Z,66.50
2018-06-24T06:19:06.533Z,66.60
2018-06-24T06:21:34.903Z,66.70
2018-06-24T06:24:03.195Z,66.50
2018-06-24T06:26:31.670Z,66.20
2018-06-24T06:28:59.937Z,66.90
2018-06-24T06:31:28.242Z,66.60
2018-06-24T06:33:56.575Z,66.60
2018-06-24T06:36:24.863Z,66.50
2018-06-24T06:38:53.177Z,66.40
2018-06-24T06:41:21.525Z,66.40
2018-06-24T06:43:49.772Z,66.20
2018-06-24T06:48:46.200Z,66.00
2018-06-24T06:51:14.456Z,66.10
2018-06-24T06:53:42.774Z,65.90
2018-06-24T06:56:12.120Z,65.80
2018-06-24T06:58:40.442Z,66.10
2018-06-24T07:01:08.752Z,66.40
2018-06-24T07:03:37.008Z,66.60
2018-06-24T07:06:05.344Z,66.80
2018-06-24T07:08:33.627Z,67.00
2018-06-24T07:11:01.960Z,67.00
2018-06-24T07:13:33.403Z,67.00
2018-06-24T07:16:01.727Z,66.90
2018-06-24T07:18:30.007Z,66.80
2018-06-24T07:20:58.277Z,66.70
2018-06-24T07:25:54.716Z,66.20
2018-06-24T07:28:23.624Z,66.20
2018-06-24T07:30:51.905Z,66.20
2018-06-24T07:33:20.470Z,66.00
2018-06-24T07:35:48.907Z,66.10
2018-06-24T07:38:17.205Z,66.10
2018-06-24T07:40:45.560Z,65.70
2018-06-24T07:43:13.856Z,65.20
2018-06-24T07:45:42.167Z,66.00
2018-06-24T07:48:10.551Z,65.50
2018-06-24T07:50:38.832Z,64.80
2018-06-24T07:53:07.283Z,64.20
2018-06-24T07:55:35.567Z,64.00
2018-06-24T07:58:03.853Z,63.70
2018-06-24T08:00:32.191Z,63.90
2018-06-24T08:03:00.399Z,63.70
2018-06-24T08:05:28.776Z,62.80
2018-06-24T08:07:57.085Z,62.70
2018-06-24T08:10:25.363Z,62.80
2018-06-24T08:12:53.855Z,62.50
2018-06-24T08:15:22.323Z,62.60
2018-06-24T08:17:50.654Z,62.10
2018-06-24T08:20:19.282Z,61.90
2018-06-24T08:22:47.708Z,62.60
2018-06-24T08:25:16.391Z,62.20
2018-06-24T08:27:44.969Z,62.70
2018-06-24T08:30:13.323Z,62.90
2018-06-24T08:32:41.634Z,62.40
2018-06-24T08:35:09.968Z,62.40
2018-06-24T08:40:07.796Z,61.40
2018-06-24T08:42:36.102Z,60.40
2018-06-24T08:45:04.478Z,59.60
2018-06-24T08:47:32.855Z,59.60
2018-06-24T08:50:01.240Z,60.10
2018-06-24T08:52:29.511Z,60.60
2018-06-24T08:54:57.781Z,60.20
2018-06-24T08:57:26.152Z,60.00
2018-06-24T08:59:54.476Z,59.50
2018-06-24T09:02:22.908Z,58.70
2018-06-24T09:04:51.205Z,58.50
2018-06-24T09:07:19.598Z,58.30
2018-06-24T09:09:47.951Z,58.50
2018-06-24T09:12:16.340Z,57.60
2018-06-24T09:14:44.810Z,56.50
2018-06-24T09:17:13.204Z,55.80
2018-06-24T09:22:10.341Z,56.00
2018-06-24T09:24:38.635Z,56.30
2018-06-24T09:27:07.027Z,55.50
2018-06-24T09:29:35.364Z,55.40
2018-06-24T09:32:03.787Z,55.80
2018-06-24T09:34:32.257Z,55.60
2018-06-24T09:37:00.599Z,55.20
2018-06-24T09:39:29.063Z,55.80
2018-06-24T09:41:57.357Z,55.50
2018-06-24T09:44:25.700Z,56.30
2018-06-24T09:46:54.065Z,56.60
2018-06-24T09:49:22.375Z,56.90
2018-06-24T09:51:50.752Z,57.40
2018-06-24T09:54:20.404Z,57.70
2018-06-24T09:56:49.205Z,57.80
2018-06-24T09:59:18.336Z,58.20
2018-06-24T10:01:46.690Z,58.50
2018-06-24T10:04:15.045Z,58.80
2018-06-24T10:06:43.635Z,58.20
2018-06-24T10:09:12.264Z,58.80
2018-06-24T10:11:40.607Z,58.50
2018-06-24T10:14:09.003Z,58.20
2018-06-24T10:16:37.406Z,57.50
2018-06-24T10:19:05.918Z,56.50
2018-06-24T10:21:34.241Z,56.50
2018-06-24T10:24:02.772Z,56.10
2018-06-24T10:26:31.081Z,55.60
2018-06-24T10:28:59.465Z,55.60
2018-06-24T10:33:56.187Z,56.80
2018-06-24T10:36:24.490Z,56.80
2018-06-24T10:38:52.746Z,56.60
2018-06-24T10:41:21.123Z,57.00
2018-06-24T10:43:49.488Z,57.00
2018-06-24T10:46:17.813Z,56.60
2018-06-24T10:48:46.200Z,56.60
2018-06-24T10:51:14.593Z,57.00
2018-06-24T10:53:42.943Z,56.90
2018-06-24T10:56:11.315Z,56.60
2018-06-24T10:58:39.651Z,56.30
2018-06-24T11:01:08.018Z,57.00
2018-06-24T11:03:36.322Z,56.30
2018-06-24T11:06:05.137Z,55.80
2018-06-24T11:08:33.449Z,55.10
2018-06-24T11:11:01.672Z,55.70
2018-06-24T11:13:29.960Z,55.80
2018-06-24T11:15:58.280Z,55.40
2018-06-24T11:18:26.735Z,55.80
2018-06-24T11:20:55.029Z,55.60
2018-06-24T11:23:23.318Z,55.40
2018-06-24T11:25:51.611Z,55.00
2018-06-24T11:28:19.968Z,55.40
2018-06-24T11:30:48.358Z,55.20
2018-06-24T11:33:16.664Z,54.20
2018-06-24T11:35:45.010Z,54.20
2018-06-24T11:38:13.379Z,54.40
2018-06-24T11:40:41.770Z,54.90
2018-06-24T11:45:38.223Z,54.10
2018-06-24T11:48:06.571Z,54.00
2018-06-24T11:50:34.885Z,54.20
2018-06-24T11:53:03.213Z,53.90
2018-06-24T11:55:31.607Z,53.80
2018-06-24T11:57:59.901Z,53.40
2018-06-24T12:00:28.256Z,53.30
2018-06-24T12:02:56.604Z,53.60
2018-06-24T12:05:24.940Z,53.10
2018-06-24T12:07:53.283Z,52.10
2018-06-24T12:10:21.902Z,52.30
2018-06-24T12:12:50.322Z,52.50
2018-06-24T12:15:18.725Z,52.20
2018-06-24T12:20:15.481Z,50.30
2018-06-24T12:22:43.846Z,49.70
2018-06-24T12:25:12.111Z,50.30
2018-06-24T12:27:40.470Z,50.00
2018-06-24T12:30:09.159Z,51.20
2018-06-24T12:32:37.718Z,49.80
2018-06-24T12:35:06.145Z,49.90
2018-06-24T12:37:34.469Z,49.90
2018-06-24T12:40:02.779Z,50.20
2018-06-24T12:42:31.077Z,49.90
2018-06-24T12:44:59.475Z,50.00
2018-06-24T12:47:27.768Z,50.40
2018-06-24T12:49:56.131Z,50.10
2018-06-24T12:52:24.514Z,49.70
2018-06-24T12:54:53.293Z,49.70
2018-06-24T12:57:21.636Z,50.70
2018-06-24T12:59:50.877Z,50.60
2018-06-24T13:02:18.944Z,50.80
2018-06-24T13:04:47.265Z,50.00
2018-06-24T13:07:15.625Z,49.10
2018-06-24T13:09:43.969Z,49.10
2018-06-24T13:12:12.364Z,49.80
2018-06-24T13:14:40.657Z,49.50
2018-06-24T13:17:09.046Z,49.80
2018-06-24T13:19:37.349Z,49.20
2018-06-24T13:22:05.778Z,49.90
2018-06-24T13:24:34.125Z,49.80
2018-06-24T13:27:02.462Z,50.50
2018-06-24T13:29:30.781Z,50.00
2018-06-24T13:31:59.167Z,49.80
2018-06-24T13:34:27.520Z,50.20
2018-06-24T13:36:56.669Z,49.10
2018-06-24T13:39:25.012Z,47.20
2018-06-24T13:41:53.305Z,46.90
2018-06-24T13:44:22.491Z,46.90
2018-06-24T13:46:50.902Z,46.60
2018-06-24T13:49:19.203Z,45.70
2018-06-24T13:51:47.493Z,45.80
2018-06-24T13:54:15.787Z,46.10
2018-06-24T13:56:44.113Z,47.40
2018-06-24T13:59:12.570Z,46.50
2018-06-24T14:01:41.149Z,47.40
2018-06-24T14:04:09.452Z,47.00
2018-06-24T14:06:37.957Z,46.90
2018-06-24T14:09:08.936Z,47.50
2018-06-24T14:11:37.370Z,47.20
2018-06-24T14:14:06.276Z,47.60
2018-06-24T14:16:34.545Z,49.00
2018-06-24T14:19:03.061Z,49.20
2018-06-24T14:21:31.503Z,49.00
2018-06-24T14:24:00.083Z,48.70
2018-06-24T14:26:28.363Z,49.00
2018-06-24T14:28:56.699Z,48.30
2018-06-24T14:31:24.971Z,48.40
2018-06-24T14:33:53.338Z,48.00
2018-06-24T14:36:21.800Z,48.80
2018-06-24T14:38:50.142Z,49.80
2018-06-24T14:41:18.524Z,48.20
2018-06-24T14:43:46.825Z,48.00
2018-06-24T14:46:15.234Z,48.30
2018-06-24T14:48:43.873Z,48.40
2018-06-24T14:51:12.174Z,48.10
2018-06-24T14:53:40.504Z,48.40
2018-06-24T14:56:09.000Z,48.50
2018-06-24T14:58:37.529Z,49.00
2018-06-24T15:01:06.622Z,48.60
2018-06-24T15:03:35.051Z,46.40
2018-06-24T15:06:03.532Z,46.90
2018-06-24T15:08:32.226Z,47.70
2018-06-24T15:11:00.574Z,48.50
2018-06-24T15:13:28.896Z,48.30
2018-06-24T15:15:57.175Z,48.60
2018-06-24T15:18:25.472Z,48.50
2018-06-24T15:20:53.808Z,49.50
2018-06-24T15:23:22.108Z,49.20
2018-06-24T15:25:50.614Z,48.90
2018-06-24T15:28:19.019Z,48.30
2018-06-24T15:30:47.333Z,47.30
2018-06-24T15:33:15.708Z,47.20
2018-06-24T15:35:44.035Z,46.90
2018-06-24T15:38:12.336Z,47.00
2018-06-24T15:40:42.070Z,46.60
2018-06-24T15:43:10.466Z,46.90
2018-06-24T15:45:39.813Z,47.00
2018-06-24T15:48:08.174Z,46.50
2018-06-24T15:50:36.562Z,46.80
2018-06-24T15:53:05.365Z,46.00
2018-06-24T15:55:33.675Z,45.80
2018-06-24T15:58:01.983Z,45.90
2018-06-24T16:00:30.314Z,45.90
2018-06-24T16:02:58.741Z,46.90
2018-06-24T16:05:27.040Z,47.30
2018-06-24T16:07:55.261Z,46.80
2018-06-24T16:10:23.610Z,47.40
2018-06-24T16:12:51.932Z,47.50
2018-06-24T16:15:20.289Z,47.60
2018-06-24T16:17:48.641Z,47.70
2018-06-24T16:20:16.928Z,48.00
2018-06-24T16:22:45.209Z,48.60
2018-06-24T16:25:13.972Z,48.50
2018-06-24T16:27:42.249Z,48.80
2018-06-24T16:30:10.488Z,49.80
2018-06-24T16:32:38.748Z,49.20
2018-06-24T16:35:06.969Z,49.40
2018-06-24T16:37:35.263Z,49.60
2018-06-24T16:40:03.675Z,49.90
2018-06-24T16:42:31.947Z,49.80
2018-06-24T16:45:00.284Z,49.80
2018-06-24T16:47:28.610Z,50.10
2018-06-24T16:49:56.897Z,50.30
2018-06-24T16:52:25.201Z,50.30
2018-06-24T16:54:53.481Z,50.70
2018-06-24T16:59:49.773Z,50.70
2018-06-24T17:02:18.061Z,51.10
2018-06-24T17:04:46.356Z,51.00
2018-06-24T17:07:14.611Z,51.40
2018-06-24T17:09:42.867Z,51.50
2018-06-24T17:14:39.828Z,51.60
2018-06-24T17:19:36.257Z,52.00
2018-06-24T17:22:04.574Z,51.80
2018-06-24T17:24:32.894Z,51.90
2018-06-24T17:27:01.210Z,51.90
2018-06-24T17:29:29.471Z,52.00
2018-06-24T17:31:57.733Z,52.30
2018-06-24T17:34:26.068Z,52.10
2018-06-24T17:36:54.501Z,52.20
2018-06-24T17:39:23.398Z,51.90
2018-06-24T17:41:51.727Z,52.30
2018-06-24T17:44:20.047Z,52.20
2018-06-24T17:46:48.362Z,52.40
2018-06-24T17:49:16.704Z,52.40
2018-06-24T17:51:44.962Z,52.50
2018-06-24T17:54:13.323Z,52.70
2018-06-24T17:56:41.608Z,52.50
2018-06-24T17:59:10.053Z,52.40
2018-06-24T18:01:38.304Z,52.40
2018-06-24T18:04:06.670Z,52.40
2018-06-24T18:06:34.931Z,52.40
2018-06-24T18:09:03.496Z,52.60
2018-06-24T18:11:31.776Z,52.50
2018-06-24T18:14:00.070Z,52.70
2018-06-24T18:16:28.303Z,52.80
2018-06-24T18:18:56.602Z,52.50
2018-06-24T18:21:24.879Z,52.80
2018-06-24T18:23:53.184Z,52.60
2018-06-24T18:26:21.429Z,52.60
2018-06-24T18:28:49.687Z,52.40
2018-06-24T18:31:18.110Z,52.50
2018-06-24T18:33:46.577Z,52.50
2018-06-24T18:36:14.832Z,52.60
2018-06-24T18:41:11.474Z,52.70
2018-06-24T18:43:39.781Z,52.80
2018-06-24T18:46:10.108Z,52.60
2018-06-24T18:48:38.399Z,52.90
2018-06-24T18:51:06.756Z,53.20
2018-06-24T18:53:35.020Z,53.30
2018-06-24T18:56:03.383Z,53.50
2018-06-24T18:58:31.651Z,53.30
2018-06-24T19:00:59.976Z,53.60
2018-06-24T19:03:28.258Z,53.80
2018-06-24T19:05:56.524Z,54.10
2018-06-24T19:08:24.874Z,54.00
2018-06-24T19:10:53.124Z,54.00
2018-06-24T19:13:21.399Z,54.10
2018-06-24T19:15:49.652Z,54.40
2018-06-24T19:18:17.988Z,54.40
2018-06-24T19:20:46.260Z,54.40
2018-06-24T19:23:14.996Z,54.50
2018-06-24T19:25:43.220Z,54.50
2018-06-24T19:28:11.503Z,55.00
2018-06-24T19:30:39.767Z,54.90
2018-06-24T19:33:08.095Z,55.10
2018-06-24T19:35:36.451Z,55.20
2018-06-24T19:38:04.985Z,55.30
2018-06-24T19:40:33.335Z,55.70
2018-06-24T19:43:01.616Z,55.50
2018-06-24T19:45:30.054Z,56.00
2018-06-24T19:47:58.395Z,56.10
2018-06-24T19:50:26.871Z,56.00
2018-06-24T19:52:55.234Z,55.90
2018-06-24T19:55:23.603Z,56.20
2018-06-24T19:57:51.958Z,56.20
2018-06-24T20:00:20.628Z,56.60
2018-06-24T20:02:48.975Z,56.70
2018-06-24T20:05:17.377Z,56.80
2018-06-24T20:07:45.675Z,56.70
2018-06-24T20:10:14.110Z,56.80
2018-06-24T20:17:38.607Z,57.40
2018-06-24T20:20:08.068Z,57.90
2018-06-24T20:22:36.449Z,57.90
2018-06-24T20:25:05.017Z,57.90
2018-06-24T20:27:33.350Z,58.00
2018-06-24T20:30:01.974Z,58.00
2018-06-24T20:32:30.265Z,58.00
2018-06-24T20:34:58.775Z,57.90
2018-06-24T20:37:27.131Z,58.00
2018-06-24T20:39:55.521Z,58.00
2018-06-24T20:42:24.575Z,58.10
2018-06-24T20:44:52.895Z,58.50
2018-06-24T20:47:21.371Z,58.80
2018-06-24T20:49:49.685Z,58.90
2018-06-24T20:52:18.055Z,59.00
2018-06-24T20:54:46.391Z,59.00
2018-06-24T20:57:14.753Z,59.10
2018-06-24T20:59:43.180Z,59.40
2018-06-24T21:02:11.488Z,59.20
2018-06-24T21:04:39.856Z,59.30
2018-06-24T21:07:08.154Z,59.40
2018-06-24T21:09:36.483Z,59.90
2018-06-24T21:12:05.288Z,59.70
2018-06-24T21:14:33.599Z,59.80
2018-06-24T21:17:01.929Z,59.80
2018-06-24T21:19:30.772Z,60.00
2018-06-24T21:21:59.054Z,59.90
2018-06-24T21:24:34.392Z,59.80
2018-06-24T21:27:02.681Z,59.90
2018-06-24T21:31:59.074Z,59.80
2018-06-24T21:34:27.576Z,59.80
2018-06-24T21:36:56.663Z,59.80
2018-06-24T21:39:25.369Z,60.00
2018-06-24T21:41:53.710Z,59.80
2018-06-24T21:44:22.073Z,60.00
2018-06-24T21:46:50.728Z,59.90
2018-06-24T21:49:19.086Z,60.10
2018-06-24T21:51:47.482Z,60.20
2018-06-24T21:54:16.014Z,60.30
2018-06-24T21:56:44.565Z,60.50
2018-06-24T21:59:12.985Z,60.40
2018-06-24T22:01:41.444Z,60.40
2018-06-24T22:04:09.906Z,60.70
2018-06-24T22:06:38.645Z,60.60
2018-06-24T22:09:10.311Z,60.50
2018-06-24T22:11:40.185Z,60.70
2018-06-24T22:14:09.573Z,60.70
2018-06-24T22:16:38.205Z,60.80
2018-06-24T22:19:06.698Z,60.70
2018-06-24T22:21:35.176Z,60.80
2018-06-24T22:24:03.572Z,60.70
2018-06-24T22:26:31.963Z,60.60
2018-06-24T22:29:00.233Z,60.60
2018-06-24T22:31:28.576Z,60.80
2018-06-24T22:33:56.872Z,61.00
2018-06-24T22:36:25.468Z,60.90
2018-06-24T22:38:53.847Z,60.90
2018-06-24T22:41:22.416Z,61.00
2018-06-24T22:43:50.888Z,61.10
2018-06-24T22:46:19.249Z,61.20
2018-06-24T22:48:48.518Z,61.20
2018-06-24T22:51:16.903Z,61.30
2018-06-24T22:53:45.265Z,61.50
2018-06-24T22:56:13.574Z,61.50
2018-06-24T22:58:42.671Z,61.40
2018-06-24T23:01:10.999Z,61.50
2018-06-24T23:03:39.394Z,61.60
2018-06-24T23:06:07.743Z,61.60
2018-06-24T23:08:36.036Z,61.80
2018-06-24T23:11:04.418Z,62.00
2018-06-24T23:13:32.792Z,62.00
2018-06-24T23:16:01.185Z,62.30
2018-06-24T23:18:29.518Z,62.30
2018-06-24T23:20:57.845Z,62.20
2018-06-24T23:23:26.215Z,62.20
2018-06-24T23:25:54.580Z,62.30
2018-06-24T23:28:23.055Z,62.40
2018-06-24T23:30:51.352Z,62.50
2018-06-24T23:33:19.627Z,62.40
2018-06-24T23:35:49.276Z,62.40
2018-06-24T23:38:17.605Z,62.70
2018-06-24T23:40:46.069Z,62.60
2018-06-24T23:43:14.363Z,62.70
2018-06-24T23:45:42.652Z,62.70
2018-06-24T23:48:10.911Z,62.70
2018-06-24T23:50:39.147Z,62.60
2018-06-24T23:55:35.496Z,62.90
2018-06-24T23:58:03.835Z,62.80
